Time;durP1;ratioP1;P1;durP2;ratioP2;P2;SDS_P1;SDS_P2;PMS_P1;PMS_P2;Temp;Humidity;BMP_temperature;BMP_pressure;BME280_temperature;BME280_humidity;BME280_pressure;Samples;Min_cycle;Max_cycle;Signal;HPM_P1;HPM_P2
2020/12/07 00:01:01;;;;;;;39.08;21.10;;;;;;;4.68;89.77;99552.25;5072114;28;20115;-68
2020/12/07 00:03:26;;;;;;;41.95;21.30;;;;;;;4.65;89.67;99540.16;5071030;28;20037;-68
2020/12/07 00:05:52;;;;;;;38.50;21.13;;;;;;;4.71;89.81;99529.97;5070801;28;20040;-68
2020/12/07 00:08:17;;;;;;;34.00;20.60;;;;;;;4.73;89.76;99512.13;5071097;28;20780;-68
2020/12/07 00:10:43;;;;;;;38.97;21.87;;;;;;;4.70;89.53;99528.31;5070783;28;20040;-68
2020/12/07 00:13:08;;;;;;;38.70;21.63;;;;;;;4.65;89.45;99542.81;5071093;28;20033;-68
2020/12/07 00:15:33;;;;;;;41.50;19.87;;;;;;;4.65;89.66;99537.53;5054148;28;20464;-68
2020/12/07 00:18:01;;;;;;;39.57;20.63;;;;;;;4.80;89.54;99556.31;5070820;28;20040;-68
2020/12/07 00:20:26;;;;;;;34.42;19.67;;;;;;;4.74;89.01;99548.16;5071738;28;20064;-68
2020/12/07 00:22:51;;;;;;;37.70;19.43;;;;;;;4.69;89.26;99537.22;5071110;28;20070;-68
2020/12/07 00:25:17;;;;;;;33.97;19.47;;;;;;;4.78;89.31;99537.13;5070511;28;20509;-68
2020/12/07 00:27:42;;;;;;;47.50;22.70;;;;;;;4.76;89.08;99528.53;5071429;28;20097;-68
2020/12/07 00:30:07;;;;;;;35.47;19.73;;;;;;;4.75;89.31;99531.31;5071627;28;20037;-68
2020/12/07 00:32:33;;;;;;;34.13;19.67;;;;;;;4.76;89.21;99539.09;5070694;28;20101;-68
2020/12/07 00:34:59;;;;;;;37.90;21.85;;;;;;;4.85;89.24;99543.47;5053540;28;20036;-68
2020/12/07 00:37:24;;;;;;;33.10;19.10;;;;;;;4.82;88.90;99535.84;5070336;28;20070;-68
2020/12/07 00:39:50;;;;;;;29.63;15.30;;;;;;;4.85;88.94;99556.69;5070338;28;20060;-68
2020/12/07 00:42:15;;;;;;;40.35;21.67;;;;;;;4.79;89.10;99564.41;5071476;28;20063;-68
2020/12/07 00:44:41;;;;;;;34.30;20.10;;;;;;;4.83;88.95;99556.00;5053707;28;20037;-68
2020/12/07 00:47:08;;;;;;;35.92;19.80;;;;;;;4.83;88.88;99550.72;5070181;28;20047;-68
2020/12/07 00:49:35;;;;;;;37.65;21.08;;;;;;;4.81;88.91;99549.22;5070466;28;20041;-68
2020/12/07 00:52:00;;;;;;;36.65;21.27;;;;;;;4.75;88.90;99548.03;5070517;28;20123;-68
2020/12/07 00:54:26;;;;;;;35.60;20.58;;;;;;;4.72;89.02;99553.59;5070253;28;20107;-68
2020/12/07 00:56:56;;;;;;;40.42;21.42;;;;;;;4.76;89.27;99551.50;5070108;28;20161;-68
2020/12/07 00:59:26;;;;;;;39.08;20.63;;;;;;;4.83;89.20;99552.53;5070276;28;20040;-68
2020/12/07 01:01:54;;;;;;;39.55;20.15;;;;;;;4.92;89.05;99559.53;5053584;28;20028;-68
2020/12/07 01:04:19;;;;;;;35.05;19.23;;;;;;;4.89;89.06;99557.19;5071042;28;20036;-68
2020/12/07 01:06:47;;;;;;;42.23;21.33;;;;;;;4.92;88.91;99553.44;5070916;28;20032;-68
2020/12/07 01:09:19;;;;;;;35.40;19.23;;;;;;;4.86;88.75;99528.41;5070206;28;20036;-68
2020/12/07 01:11:46;;;;;;;39.15;21.85;;;;;;;4.81;88.93;99533.34;5071098;28;20060;-68
2020/12/07 01:14:13;;;;;;;39.80;21.00;;;;;;;4.77;88.94;99524.88;5053608;28;20480;-68
2020/12/07 01:16:40;;;;;;;39.03;22.60;;;;;;;4.83;88.95;99520.81;5053162;28;20036;-68
2020/12/07 01:19:07;;;;;;;34.17;19.52;;;;;;;4.75;88.98;99512.78;5071098;28;20047;-68
2020/12/07 01:21:37;;;;;;;37.15;20.23;;;;;;;4.74;89.08;99511.97;5070026;28;20051;-68
2020/12/07 01:24:04;;;;;;;37.00;20.42;;;;;;;4.74;89.07;99509.34;5053373;28;20029;-68
2020/12/07 01:26:31;;;;;;;39.88;21.55;;;;;;;4.79;89.28;99512.34;5053212;28;20128;-68
2020/12/07 01:28:58;;;;;;;42.35;21.15;;;;;;;4.72;88.90;99494.59;5070023;28;20035;-68
2020/12/07 01:31:24;;;;;;;35.72;19.85;;;;;;;4.71;89.26;99485.03;5053366;28;20115;-68
2020/12/07 01:33:50;;;;;;;39.65;21.67;;;;;;;4.68;89.11;99501.19;5070923;28;20123;-68
2020/12/07 01:36:16;;;;;;;38.70;20.48;;;;;;;4.75;89.21;99504.88;5069537;28;20127;-68
2020/12/07 01:38:42;;;;;;;37.30;21.20;;;;;;;4.72;89.23;99497.25;5070957;28;20107;-68
2020/12/07 01:41:08;;;;;;;35.83;20.48;;;;;;;4.75;89.27;99515.44;5069943;28;20057;-69
2020/12/07 01:43:33;;;;;;;36.97;21.43;;;;;;;4.73;89.05;99525.34;5069853;28;20079;-68
2020/12/07 01:46:00;;;;;;;41.20;22.15;;;;;;;4.72;89.19;99515.75;5070287;28;20096;-68
2020/12/07 01:48:29;;;;;;;36.60;20.23;;;;;;;4.71;89.08;99509.66;5073730;28;20040;-68
2020/12/07 01:50:59;;;;;;;38.22;22.70;;;;;;;4.72;89.02;99497.25;5057662;28;20063;-68
2020/12/07 01:53:25;;;;;;;39.30;20.75;;;;;;;4.75;88.82;99495.16;5073632;28;20339;-68
2020/12/07 01:55:53;;;;;;;37.22;22.17;;;;;;;4.70;89.02;99494.75;5073227;28;20032;-68
2020/12/07 01:58:18;;;;;;;41.38;19.80;;;;;;;4.78;88.92;99491.34;5056988;28;20091;-68
2020/12/07 02:00:44;;;;;;;41.50;21.80;;;;;;;4.81;88.56;99501.59;5073441;28;20097;-68
2020/12/07 02:03:11;;;;;;;37.10;21.60;;;;;;;4.83;88.97;99495.19;5073189;28;20032;-68
2020/12/07 02:05:38;;;;;;;42.78;21.50;;;;;;;4.86;88.90;99504.63;5073044;28;20025;-68
2020/12/07 02:08:16;;;;;;;42.65;21.85;;;;;;;4.93;88.67;99502.19;5057055;28;20037;-68
2020/12/07 02:10:52;;;;;;;;;;;;;;;4.94;88.54;99502.03;5073727;28;20067;-68
2020/12/07 02:13:22;;;;;;;36.58;19.67;;;;;;;4.93;88.35;99491.59;5073204;28;19920;-68
2020/12/07 02:15:47;;;;;;;40.65;21.02;;;;;;;4.94;88.42;99483.50;5072733;28;20082;-68
2020/12/07 02:18:16;;;;;;;37.35;19.58;;;;;;;4.91;88.55;99475.88;5073158;28;20043;-68
2020/12/07 02:20:46;;;;;;;37.37;20.63;;;;;;;4.97;88.23;99467.31;5073185;28;20373;-68
2020/12/07 02:23:13;;;;;;;35.40;20.02;;;;;;;4.98;88.24;99468.97;5073020;28;20115;-68
2020/12/07 02:25:50;;;;;;;33.35;18.80;;;;;;;5.02;88.06;99466.84;5072751;28;20040;-68
2020/12/07 02:28:17;;;;;;;36.10;20.20;;;;;;;4.95;87.83;99466.66;5072920;28;20044;-68
2020/12/07 02:30:43;;;;;;;33.70;19.03;;;;;;;4.93;88.10;99476.56;5072930;28;20067;-68
2020/12/07 02:33:08;;;;;;;37.25;20.88;;;;;;;5.01;87.91;99484.53;5072913;28;20073;-68
2020/12/07 02:35:34;;;;;;;38.23;20.27;;;;;;;5.00;87.67;99485.50;5072613;28;20120;-68
2020/12/07 02:37:59;;;;;;;33.33;18.70;;;;;;;5.00;87.79;99469.66;5072734;28;20408;-68
2020/12/07 02:40:29;;;;;;;37.22;19.60;;;;;;;5.04;87.73;99478.09;5072732;28;20040;-68
2020/12/07 02:42:57;;;;;;;38.22;20.17;;;;;;;5.09;87.55;99486.41;5056285;28;20596;-68
2020/12/07 02:45:27;;;;;;;34.72;18.65;;;;;;;5.17;87.35;99491.72;5056705;28;20031;-68
2020/12/07 02:48:06;;;;;;;37.28;20.08;;;;;;;5.20;87.31;99477.34;5072607;28;20044;-68
2020/12/07 02:50:34;;;;;;;33.53;19.65;;;;;;;5.14;87.18;99459.47;5072422;28;20043;-68
2020/12/07 02:53:01;;;;;;;33.83;17.70;;;;;;;5.26;87.04;99466.13;5056114;28;20043;-68
2020/12/07 02:55:28;;;;;;;35.58;19.00;;;;;;;5.32;86.56;99459.38;5072329;28;20040;-68
2020/12/07 02:57:53;;;;;;;35.97;19.07;;;;;;;5.34;86.75;99458.22;5071974;28;20121;-68
2020/12/07 03:00:25;;;;;;;35.03;17.92;;;;;;;5.42;86.24;99458.25;5072358;28;20060;-68
2020/12/07 03:02:51;;;;;;;35.97;20.15;;;;;;;5.49;85.63;99445.19;5072229;28;20059;-68
2020/12/07 03:05:21;;;;;;;38.72;19.67;;;;;;;5.42;85.88;99434.41;5056228;28;20039;-68
2020/12/07 03:07:46;;;;;;;30.80;17.57;;;;;;;5.44;85.89;99450.16;5071807;28;20040;-68
2020/12/07 03:10:12;;;;;;;46.75;20.38;;;;;;;5.52;85.64;99457.28;5072191;28;20032;-68
2020/12/07 03:12:40;;;;;;;39.25;20.90;;;;;;;5.52;85.57;99459.91;5072142;28;20492;-68
2020/12/07 03:15:08;;;;;;;30.63;19.40;;;;;;;5.51;85.84;99453.81;5055703;28;20040;-68
2020/12/07 03:17:37;;;;;;;33.97;18.85;;;;;;;5.47;85.69;99453.28;5071707;28;20039;-68
2020/12/07 03:20:03;;;;;;;26.52;15.20;;;;;;;5.43;85.83;99433.44;5072099;28;20032;-68
2020/12/07 03:22:29;;;;;;;33.63;18.17;;;;;;;5.45;85.65;99433.25;5055281;28;20465;-68
2020/12/07 03:24:54;;;;;;;36.92;19.23;;;;;;;5.48;85.55;99436.44;5071910;28;20066;-68
2020/12/07 03:27:20;;;;;;;34.87;18.93;;;;;;;5.48;85.61;99419.72;5071612;28;20044;-68
2020/12/07 03:29:45;;;;;;;30.20;16.83;;;;;;;5.55;85.54;99404.84;5071892;28;20040;-68
2020/12/07 03:32:11;;;;;;;29.55;16.55;;;;;;;5.60;85.40;99401.72;5071692;28;20028;-68
2020/12/07 03:34:37;;;;;;;30.02;17.27;;;;;;;5.64;85.10;99403.03;5071715;28;20067;-68
2020/12/07 03:37:03;;;;;;;30.70;17.37;;;;;;;5.67;84.86;99405.34;5071166;28;20067;-68
2020/12/07 03:39:48;;;;;;;27.45;14.70;;;;;;;5.61;84.93;99401.53;5057836;28;20090;-68
2020/12/07 03:42:13;;;;;;;32.20;17.50;;;;;;;5.63;85.28;99410.13;5054914;28;20040;-68
2020/12/07 03:44:39;;;;;;;31.02;17.58;;;;;;;5.62;85.60;99391.75;5071451;28;20105;-68
2020/12/07 03:47:05;;;;;;;33.57;19.03;;;;;;;5.65;85.49;99402.03;5072130;28;20072;-68
2020/12/07 03:49:30;;;;;;;34.27;17.37;;;;;;;5.61;85.58;99409.47;5071406;28;20032;-68
2020/12/07 03:51:57;;;;;;;33.92;17.60;;;;;;;5.64;85.27;99413.59;5071393;28;20366;-68
2020/12/07 03:54:24;;;;;;;32.72;17.40;;;;;;;5.62;85.52;99411.16;5071367;28;20040;-68
2020/12/07 03:56:50;;;;;;;36.50;18.15;;;;;;;5.64;85.27;99409.16;5054438;28;20119;-68
2020/12/07 03:59:16;;;;;;;30.38;16.88;;;;;;;5.65;85.48;99417.94;5071280;28;20068;-68
2020/12/07 04:01:41;;;;;;;32.33;17.30;;;;;;;5.62;85.47;99413.78;5071160;28;20064;-68
2020/12/07 04:04:12;;;;;;;34.13;19.65;;;;;;;5.64;85.64;99416.25;5070778;28;20119;-68
2020/12/07 04:06:42;;;;;;;32.60;18.05;;;;;;;5.66;85.57;99406.34;5070795;28;20036;-68
2020/12/07 04:09:12;;;;;;;34.38;17.02;;;;;;;5.66;85.48;99415.09;5070387;28;20737;-68
2020/12/07 04:11:38;;;;;;;21.40;12.47;;;;;;;5.64;85.58;99406.50;5071963;28;20044;-68
2020/12/07 04:14:03;;;;;;;33.07;17.37;;;;;;;5.69;85.57;99425.38;5070965;28;20044;-68
2020/12/07 04:16:29;;;;;;;32.75;19.20;;;;;;;5.69;85.40;99413.97;5070502;28;20068;-68
2020/12/07 04:18:54;;;;;;;27.73;16.50;;;;;;;5.74;85.23;99411.66;5070912;28;20033;-68
2020/12/07 04:21:20;;;;;;;34.20;19.67;;;;;;;5.77;84.79;99411.31;5071767;28;20072;-68
2020/12/07 04:23:45;;;;;;;30.07;18.03;;;;;;;5.71;84.89;99410.16;5071673;28;20020;-68
2020/12/07 04:26:10;;;;;;;32.67;18.40;;;;;;;5.80;84.64;99408.34;5070533;28;20757;-68
2020/12/07 04:28:36;;;;;;;35.53;17.90;;;;;;;5.80;84.84;99392.44;5070696;28;20086;-68
2020/12/07 04:31:02;;;;;;;30.80;16.23;;;;;;;5.80;84.60;99391.63;5071338;28;20036;-68
2020/12/07 04:33:28;;;;;;;37.42;17.63;;;;;;;5.79;84.65;99406.69;5060705;28;20047;-68
2020/12/07 04:35:53;;;;;;;32.43;17.70;;;;;;;5.83;84.71;99412.47;5070821;28;20044;-68
2020/12/07 04:38:18;;;;;;;37.03;18.07;;;;;;;5.86;84.65;99402.38;5070550;28;20051;-68
2020/12/07 04:40:44;;;;;;;35.00;17.27;;;;;;;5.84;84.68;99393.78;5071429;28;20040;-68
2020/12/07 04:43:09;;;;;;;33.53;16.97;;;;;;;5.85;84.04;99398.09;5071521;28;20024;-68
2020/12/07 04:45:35;;;;;;;24.30;13.03;;;;;;;5.86;84.26;99399.75;5070060;28;20448;-68
2020/12/07 04:48:01;;;;;;;33.40;17.37;;;;;;;5.85;84.31;99397.25;5070430;28;20377;-68
2020/12/07 04:50:29;;;;;;;30.75;17.42;;;;;;;5.90;84.13;99400.25;5071391;28;20467;-68
2020/12/07 04:52:56;;;;;;;31.83;17.42;;;;;;;5.86;84.09;99402.38;5071290;28;20127;-68
2020/12/07 04:55:22;;;;;;;36.65;16.45;;;;;;;5.88;84.25;99412.84;5070414;28;20066;-68
2020/12/07 04:57:49;;;;;;;32.53;16.75;;;;;;;5.89;84.21;99403.88;5070086;28;20036;-68
2020/12/07 05:00:14;;;;;;;32.25;16.02;;;;;;;5.91;84.17;99405.38;5071130;28;20037;-68
2020/12/07 05:02:39;;;;;;;30.60;16.88;;;;;;;5.86;84.27;99398.91;5071171;28;20119;-68
2020/12/07 05:05:07;;;;;;;31.97;18.10;;;;;;;5.83;84.17;99400.06;5053633;28;20454;-68
2020/12/07 05:07:33;;;;;;;39.50;16.95;;;;;;;5.87;84.16;99396.09;5069935;28;20043;-68
2020/12/07 05:10:02;;;;;;;28.08;15.52;;;;;;;5.95;83.62;99402.41;5070369;28;20044;-68
2020/12/07 05:12:37;;;;;;;32.60;17.65;;;;;;;5.93;83.59;99400.72;5070179;28;20040;-68
2020/12/07 05:15:06;;;;;;;34.35;17.88;;;;;;;5.91;83.70;99384.16;5071106;28;20065;-68
2020/12/07 05:17:31;;;;;;;29.80;16.85;;;;;;;5.95;83.68;99394.47;5053257;28;20039;-68
2020/12/07 05:19:57;;;;;;;23.70;13.00;;;;;;;5.92;83.77;99393.78;5071939;28;20037;-68
2020/12/07 05:22:22;;;;;;;42.33;17.85;;;;;;;5.89;83.78;99391.44;5074356;28;20067;-68
2020/12/07 05:24:51;;;;;;;26.80;17.20;;;;;;;5.90;84.08;99401.06;5074143;28;20064;-68
2020/12/07 05:27:18;;;;;;;33.35;18.42;;;;;;;5.81;84.22;99394.13;5073822;28;20044;-68
2020/12/07 05:29:58;;;;;;;29.00;16.95;;;;;;;5.79;84.38;99388.16;5075143;28;20437;-68
2020/12/07 05:32:29;;;;;;;28.55;16.83;;;;;;;5.79;84.44;99398.75;5075069;28;20518;-68
2020/12/07 05:34:54;;;;;;;37.60;17.85;;;;;;;5.80;84.20;99392.44;5074953;28;20122;-68
2020/12/07 05:37:22;;;;;;;33.07;16.97;;;;;;;5.83;84.29;99388.63;5073580;28;20366;-68
2020/12/07 05:39:47;;;;;;;25.55;15.40;;;;;;;5.84;84.09;99385.81;5074764;28;20032;-68
2020/12/07 05:42:16;;;;;;;34.63;18.33;;;;;;;5.83;83.79;99392.13;5074812;28;20108;-68
2020/12/07 05:44:45;;;;;;;31.63;16.48;;;;;;;5.84;83.76;99395.59;5073819;28;20119;-68
2020/12/07 05:47:11;;;;;;;34.70;18.10;;;;;;;5.80;83.75;99391.63;5074464;28;20033;-68
2020/12/07 05:49:38;;;;;;;24.92;13.27;;;;;;;5.81;83.68;99391.47;5074759;28;20097;-68
2020/12/07 05:52:04;;;;;;;31.48;17.83;;;;;;;5.80;83.99;99400.38;5074743;28;20040;-68
2020/12/07 05:54:31;;;;;;;;;;;;;;;5.78;83.97;99381.19;5074084;28;20029;-68
2020/12/07 05:57:08;;;;;;;34.42;17.63;;;;;;;5.77;84.12;99373.41;5073314;28;20065;-68
2020/12/07 05:59:39;;;;;;;32.65;17.60;;;;;;;5.74;84.10;99379.06;5073621;28;20496;-68
2020/12/07 06:02:08;;;;;;;28.77;16.52;;;;;;;5.74;83.93;99390.47;5056636;28;20182;-68
2020/12/07 06:04:33;;;;;;;30.83;16.83;;;;;;;5.71;83.98;99386.34;5074133;28;20047;-68
2020/12/07 06:07:01;;;;;;;32.05;17.65;;;;;;;5.72;84.14;99387.16;5056136;28;20041;-67
2020/12/07 06:09:30;;;;;;;34.67;17.45;;;;;;;5.78;83.98;99377.72;5074119;28;20036;-68
2020/12/07 06:12:13;;;;;;;32.67;17.35;;;;;;;5.75;83.79;99381.50;5072144;28;20381;-68
2020/12/07 06:14:39;;;;;;;32.72;16.77;;;;;;;5.76;83.82;99366.44;5074229;28;20075;-68
2020/12/07 06:17:04;;;;;;;37.08;17.17;;;;;;;5.77;83.90;99363.66;5072901;28;20036;-68
2020/12/07 06:19:32;;;;;;;34.77;16.80;;;;;;;5.73;83.67;99362.31;5073100;28;20365;-68
2020/12/07 06:22:00;;;;;;;31.85;16.45;;;;;;;5.76;83.88;99371.75;5074150;28;20518;-68
2020/12/07 06:24:42;;;;;;;29.67;18.48;;;;;;;5.79;83.62;99366.97;5073004;28;20083;-68
2020/12/07 06:27:10;;;;;;;31.17;16.88;;;;;;;5.77;83.57;99368.94;5073702;28;20036;-68
2020/12/07 06:29:36;;;;;;;34.55;16.42;;;;;;;5.81;83.89;99380.06;5073019;28;20040;-67
2020/12/07 06:32:01;;;;;;;22.63;13.13;;;;;;;5.80;83.92;99389.78;5073001;28;20037;-68
2020/12/07 06:34:38;;;;;;;31.33;17.70;;;;;;;5.79;84.14;99390.78;5073003;28;20681;-68
2020/12/07 06:37:07;;;;;;;32.90;17.08;;;;;;;5.75;84.25;99378.88;5055873;28;20499;-68
2020/12/07 06:39:42;;;;;;;36.00;18.13;;;;;;;5.69;84.15;99382.19;5073827;28;20123;-68
2020/12/07 06:42:08;;;;;;;31.40;17.40;;;;;;;5.69;84.28;99379.53;5072801;28;20032;-68
2020/12/07 06:44:33;;;;;;;28.40;16.95;;;;;;;5.71;84.67;99373.09;5073581;28;20082;-68
2020/12/07 06:47:14;;;;;;;33.30;18.53;;;;;;;5.69;84.35;99379.53;5072409;28;20037;-68
2020/12/07 06:50:04;;;;;;;33.88;18.92;;;;;;;5.65;84.46;99376.38;5073528;28;20032;-68
2020/12/07 06:52:29;;;;;;;30.17;16.45;;;;;;;5.66;84.41;99377.22;5072056;28;20101;-68
2020/12/07 06:55:07;;;;;;;34.90;17.50;;;;;;;5.68;84.49;99380.53;5072736;28;20035;-68
2020/12/07 06:57:41;;;;;;;33.20;18.05;;;;;;;5.71;84.29;99381.03;5072962;28;20044;-68
2020/12/07 07:00:18;;;;;;;34.03;17.02;;;;;;;5.72;84.13;99379.22;5073651;28;20046;-68
2020/12/07 07:02:45;;;;;;;29.40;16.33;;;;;;;5.67;84.08;99376.22;5072150;28;20036;-68
2020/12/07 07:05:13;;;;;;;32.97;16.65;;;;;;;5.70;84.22;99383.84;5071987;28;20028;-68
2020/12/07 07:07:39;;;;;;;37.35;17.83;;;;;;;5.71;84.02;99385.47;5072899;28;20048;-68
2020/12/07 07:10:06;;;;;;;32.65;17.50;;;;;;;5.67;83.90;99384.19;5072261;28;20052;-68
2020/12/07 07:12:32;;;;;;;34.95;18.05;;;;;;;5.70;84.15;99375.91;5073115;28;20072;-68
2020/12/07 07:14:57;;;;;;;34.60;17.15;;;;;;;5.67;83.97;99392.13;5072145;28;20123;-68
2020/12/07 07:17:28;;;;;;;31.50;17.77;;;;;;;5.68;84.08;99386.63;5072831;28;20032;-68
2020/12/07 07:19:54;;;;;;;35.88;18.10;;;;;;;5.68;84.01;99391.94;5073009;28;20046;-68
2020/12/07 07:22:20;;;;;;;27.00;16.03;;;;;;;5.68;83.86;99397.22;5073027;28;20115;-68
2020/12/07 07:24:50;;;;;;;32.70;17.88;;;;;;;5.70;83.91;99387.31;5071957;28;20321;-68
2020/12/07 07:29:59;;;;;;;33.40;18.45;;;;;;;5.71;83.57;99381.03;5072907;28;20393;-68
2020/12/07 07:32:25;;;;;;;29.77;17.00;;;;;;;5.70;83.59;99375.91;5071793;28;20111;-68
2020/12/07 07:34:50;;;;;;;32.33;16.30;;;;;;;5.71;83.59;99380.19;5071778;28;20059;-68
2020/12/07 07:37:17;;;;;;;29.73;17.10;;;;;;;5.74;83.47;99392.28;5072330;28;20102;-69
2020/12/07 07:39:46;;;;;;;30.75;16.73;;;;;;;5.73;83.20;99391.44;5072466;28;20024;-68
2020/12/07 07:42:14;;;;;;;30.20;17.02;;;;;;;5.73;83.10;99388.78;5072539;28;20033;-68
2020/12/07 07:44:44;;;;;;;29.58;16.85;;;;;;;5.75;83.23;99400.06;5070450;28;20033;-69
2020/12/07 07:47:18;;;;;;;29.33;14.57;;;;;;;5.73;83.16;99386.16;5071983;28;20102;-68
2020/12/07 07:50:16;;;;;;;32.58;16.35;;;;;;;5.71;83.14;99388.13;5072483;28;20469;-68
2020/12/07 07:53:20;;;;;;;30.05;15.75;;;;;;;5.76;82.77;99393.78;5072432;28;20028;-68
2020/12/07 08:17:22;;;;;;;27.40;14.93;;;;;;;5.86;81.72;99402.38;5071298;28;20194;-68
2020/12/07 08:19:50;;;;;;;28.93;16.17;;;;;;;5.89;81.48;99398.56;5071801;28;20480;-68
2020/12/07 08:22:18;;;;;;;30.27;14.35;;;;;;;5.90;81.33;99394.94;5054143;28;20036;-68
2020/12/07 08:24:56;;;;;;;33.83;15.85;;;;;;;5.92;81.52;99407.03;5070598;28;20028;-68
2020/12/07 08:27:32;;;;;;;25.58;14.90;;;;;;;5.95;81.53;99402.41;5071297;28;20051;-68
2020/12/07 08:30:01;;;;;;;26.92;14.98;;;;;;;5.92;81.09;99399.09;5071622;28;20044;-68
2020/12/07 08:32:27;;;;;;;26.17;15.00;;;;;;;5.97;81.21;99408.38;5071521;28;20028;-68
2020/12/07 08:34:52;;;;;;;22.97;12.40;;;;;;;5.97;81.10;99421.63;5071509;28;20067;-68
2020/12/07 08:37:18;;;;;;;28.97;14.30;;;;;;;5.96;81.12;99419.97;5071181;28;20040;-68
2020/12/07 08:39:43;;;;;;;35.28;15.82;;;;;;;5.97;81.22;99418.97;5053675;28;20051;-68
2020/12/07 08:42:08;;;;;;;25.93;14.37;;;;;;;5.89;81.46;99417.94;5071361;28;20127;-68
2020/12/07 08:44:34;;;;;;;32.20;16.23;;;;;;;5.92;81.38;99412.34;5070471;28;20036;-68
2020/12/07 08:46:59;;;;;;;27.13;15.53;;;;;;;5.96;81.63;99406.72;5071059;28;20040;-68
2020/12/07 08:49:25;;;;;;;27.67;14.50;;;;;;;5.97;81.62;99390.69;5071326;28;20033;-68
2020/12/07 08:51:52;;;;;;;24.30;14.13;;;;;;;5.98;81.29;99396.78;5070428;28;20457;-68
2020/12/07 08:54:17;;;;;;;28.45;13.73;;;;;;;5.96;81.20;99406.72;5071491;28;20040;-68
2020/12/07 08:56:42;;;;;;;28.50;15.87;;;;;;;5.90;81.42;99410.84;5069826;28;20094;-68
2020/12/07 08:59:08;;;;;;;28.90;15.17;;;;;;;5.93;81.57;99418.44;5070306;28;20036;-68
2020/12/07 09:01:33;;;;;;;31.93;16.43;;;;;;;5.88;82.01;99424.25;5070405;28;20347;-68
2020/12/07 09:04:02;;;;;;;30.33;16.30;;;;;;;5.85;81.93;99424.59;5070931;28;20058;-68
2020/12/07 09:06:27;;;;;;;27.23;14.77;;;;;;;5.87;82.06;99424.41;5070194;28;20052;-68
2020/12/07 09:08:53;;;;;;;31.33;14.83;;;;;;;5.84;81.91;99424.75;5070197;28;20050;-68
2020/12/07 09:11:18;;;;;;;29.33;16.50;;;;;;;5.80;82.11;99426.88;5071191;28;20037;-68
2020/12/07 09:13:44;;;;;;;27.93;14.63;;;;;;;5.83;82.26;99429.22;5071097;28;20132;-68
2020/12/07 09:16:10;;;;;;;26.63;14.20;;;;;;;5.80;81.84;99421.56;5070797;28;20773;-68
2020/12/07 09:18:36;;;;;;;27.13;15.23;;;;;;;5.88;82.14;99434.03;5069943;28;20434;-68
2020/12/07 09:21:04;;;;;;;27.75;14.88;;;;;;;5.81;82.29;99428.53;5070052;28;20109;-68
2020/12/07 09:23:29;;;;;;;27.48;15.98;;;;;;;5.81;81.86;99422.44;5070906;28;20036;-68
2020/12/07 09:25:55;;;;;;;27.00;14.93;;;;;;;5.78;81.98;99423.56;5070741;28;20056;-68
2020/12/07 09:28:21;;;;;;;28.63;16.07;;;;;;;5.79;81.96;99425.22;5069118;28;20051;-68
2020/12/07 09:30:46;;;;;;;26.27;15.18;;;;;;;5.75;82.06;99423.91;5068756;28;20048;-68
2020/12/07 09:33:12;;;;;;;26.40;15.33;;;;;;;5.75;82.02;99421.25;5068717;28;20044;-68
2020/12/07 09:35:41;;;;;;;29.03;12.90;;;;;;;5.82;81.68;99435.47;5068629;28;20043;-68
2020/12/07 09:38:07;;;;;;;25.88;14.32;;;;;;;5.86;81.74;99426.22;5068646;28;20281;-68
2020/12/07 09:40:33;;;;;;;32.80;15.45;;;;;;;5.91;81.63;99431.84;5068701;28;20608;-68
2020/12/07 09:43:00;;;;;;;23.83;15.67;;;;;;;5.90;81.42;99434.69;5068658;28;20127;-68
2020/12/07 09:45:25;;;;;;;26.95;14.75;;;;;;;5.91;81.61;99423.09;5069429;28;20051;-68
2020/12/07 09:47:51;;;;;;;25.53;13.57;;;;;;;5.92;81.12;99430.03;5052977;28;20458;-68
2020/12/07 09:50:16;;;;;;;33.70;16.03;;;;;;;5.95;81.28;99423.59;5070896;28;20446;-68
2020/12/07 09:52:41;;;;;;;33.93;18.50;;;;;;;5.91;80.83;99412.50;5070049;28;20920;-68
2020/12/07 09:55:07;;;;;;;38.83;19.67;;;;;;;6.00;81.21;99408.88;5070919;28;20051;-68
2020/12/07 09:57:32;;;;;;;31.73;18.37;;;;;;;6.03;80.98;99399.78;5069605;28;20374;-71
2020/12/07 09:59:58;;;;;;;41.63;19.90;;;;;;;6.00;80.61;99400.94;5069789;28;20446;-71
2020/12/07 10:02:23;;;;;;;40.90;19.00;;;;;;;6.00;81.06;99408.06;5070655;28;20043;-71
2020/12/07 10:04:49;;;;;;;27.23;15.20;;;;;;;5.97;81.34;99408.38;5070620;28;20037;-71
2020/12/07 10:07:15;;;;;;;33.35;20.85;;;;;;;6.00;81.16;99410.72;5071562;28;20064;-71
2020/12/07 10:09:41;;;;;;;35.37;17.73;;;;;;;6.00;81.20;99416.00;5073406;28;20087;-71
2020/12/07 10:12:06;;;;;;;48.30;16.93;;;;;;;6.00;81.02;99421.31;5074217;28;20045;-71
2020/12/07 10:14:32;;;;;;;31.60;15.77;;;;;;;6.04;81.28;99433.22;5073390;28;20048;-71
2020/12/07 10:16:58;;;;;;;28.58;16.70;;;;;;;6.03;81.22;99435.03;5073846;28;20041;-73
2020/12/07 10:19:25;;;;;;;27.87;15.83;;;;;;;6.00;81.14;99434.56;5074267;28;20469;-71
2020/12/07 10:21:51;;;;;;;29.02;16.05;;;;;;;5.92;81.21;99425.59;5074142;28;20347;-71
2020/12/07 10:24:16;;;;;;;26.33;16.25;;;;;;;6.00;80.71;99427.44;5074046;28;20040;-71
2020/12/07 10:26:41;;;;;;;30.47;15.83;;;;;;;6.04;81.08;99420.81;5073817;28;20741;-71
2020/12/07 10:29:07;;;;;;;31.50;15.83;;;;;;;5.97;81.18;99422.47;5073210;28;20041;-71
2020/12/07 10:31:32;;;;;;;29.07;15.77;;;;;;;6.01;81.20;99425.59;5073858;28;20043;-71
2020/12/07 10:33:57;;;;;;;30.47;15.60;;;;;;;6.03;81.01;99426.28;5073088;28;20098;-71
2020/12/07 10:36:24;;;;;;;27.83;15.17;;;;;;;5.99;81.21;99430.22;5073547;28;20028;-71
2020/12/07 10:38:50;;;;;;;28.92;16.77;;;;;;;6.01;81.05;99436.19;5073767;28;20040;-71
2020/12/07 10:41:16;;;;;;;27.17;15.95;;;;;;;6.08;81.25;99426.59;5073724;28;20028;-72
2020/12/07 10:43:42;;;;;;;30.15;16.30;;;;;;;6.06;81.09;99420.63;5072738;28;20434;-71
2020/12/07 10:46:10;;;;;;;29.05;17.15;;;;;;;6.09;80.88;99407.88;5073151;28;20040;-72
2020/12/07 10:48:35;;;;;;;34.78;16.65;;;;;;;6.16;81.12;99410.72;5073466;28;20039;-72
2020/12/07 10:51:01;;;;;;;27.97;17.33;;;;;;;6.20;81.08;99412.00;5073476;28;20040;-72
2020/12/07 10:53:26;;;;;;;32.07;16.40;;;;;;;6.16;80.30;99401.91;5072599;28;20036;-71
2020/12/07 10:55:52;;;;;;;31.20;17.63;;;;;;;6.10;80.43;99401.59;5073268;28;20135;-72
2020/12/07 10:58:19;;;;;;;32.50;17.02;;;;;;;6.19;80.63;99410.38;5073436;28;20040;-72
2020/12/07 11:00:44;;;;;;;29.20;15.60;;;;;;;6.20;80.49;99412.00;5072279;28;20127;-72
2020/12/07 11:03:09;;;;;;;25.07;16.10;;;;;;;6.19;80.51;99414.84;5072513;28;20173;-71
2020/12/07 11:05:37;;;;;;;28.67;16.30;;;;;;;6.18;80.53;99403.41;5072076;28;20201;-71
2020/12/07 11:08:10;;;;;;;27.55;15.68;;;;;;;6.20;80.40;99408.53;5073356;28;20515;-71
2020/12/07 11:10:36;;;;;;;28.40;16.17;;;;;;;6.17;80.84;99428.25;5072305;28;20094;-71
2020/12/07 11:13:05;;;;;;;28.30;14.80;;;;;;;6.18;80.66;99427.28;5073285;28;20059;-71
2020/12/07 11:15:30;;;;;;;30.50;17.08;;;;;;;6.12;80.74;99426.09;5072876;28;20048;-71
2020/12/07 11:17:56;;;;;;;31.43;16.03;;;;;;;6.12;80.99;99419.97;5072785;28;20040;-72
2020/12/07 11:20:21;;;;;;;34.20;17.70;;;;;;;6.17;81.17;99422.13;5072073;28;20086;-72
2020/12/07 11:22:46;;;;;;;26.17;15.53;;;;;;;6.16;81.04;99416.00;5073104;28;20072;-72
2020/12/07 11:25:12;;;;;;;30.93;16.67;;;;;;;6.17;81.05;99409.69;5072864;28;20093;-71
2020/12/07 11:27:37;;;;;;;30.60;18.10;;;;;;;6.25;80.78;99406.22;5071787;28;20045;-72
2020/12/07 11:30:03;;;;;;;27.40;16.17;;;;;;;6.19;80.90;99388.34;5072807;28;20072;-71
2020/12/07 11:32:28;;;;;;;30.75;16.95;;;;;;;6.23;80.66;99398.44;5071980;28;20072;-71
2020/12/07 11:34:54;;;;;;;26.37;15.77;;;;;;;6.27;80.46;99391.78;5072864;28;20046;-71
2020/12/07 11:37:19;;;;;;;30.20;16.50;;;;;;;6.37;79.94;99398.72;5072452;28;20040;-71
2020/12/07 11:40:44;;;;;;;26.80;15.00;;;;;;;6.41;79.92;99397.41;5072576;28;20374;-71
2020/12/07 11:42:40;;;;;;;28.38;16.02;;;;;;;6.50;79.68;99389.25;5065082;28;20057;-71
2020/12/07 11:45:05;;;;;;;28.85;16.95;;;;;;;6.57;79.21;99401.84;5072491;28;20040;-71
2020/12/07 11:47:31;;;;;;;26.50;15.40;;;;;;;6.62;79.11;99408.28;5072205;28;20051;-71
2020/12/07 11:49:57;;;;;;;23.97;14.87;;;;;;;6.67;78.98;99408.63;5071470;28;20354;-71
2020/12/07 11:52:23;;;;;;;30.52;15.70;;;;;;;6.70;78.94;99412.78;5071440;28;20020;-71